Time;durP1;ratioP1;P1;durP2;ratioP2;P2;SDS_P1;SDS_P2;PMS_P1;PMS_P2;Temp;Humidity;BMP_temperature;BMP_pressure;BME280_temperature;BME280_humidity;BME280_pressure;Samples;Min_cycle;Max_cycle;Signal;HPM_P1;HPM_P2
2022/04/24 00:00:09;;;;;;;10.20;7.70;;;8.20;99.90;;;;;;5063038;28;20493;-66
2022/04/24 00:02:35;;;;;;;9.90;8.27;;;8.00;99.90;;;;;;5049388;28;20039;-66
2022/04/24 00:05:01;;;;;;;13.32;8.40;;;8.00;99.90;;;;;;5048151;28;20156;-66
2022/04/24 00:07:27;;;;;;;9.02;7.60;;;8.00;99.90;;;;;;5060080;28;20035;-66
2022/04/24 00:09:53;;;;;;;10.75;7.97;;;8.00;99.90;;;;;;5064352;28;20039;-66
2022/04/24 00:12:18;;;;;;;9.05;6.93;;;8.00;99.90;;;;;;5065036;28;20035;-67
2022/04/24 00:14:45;;;;;;;10.20;7.75;;;7.90;99.90;;;;;;5065686;28;20036;-66
2022/04/24 00:17:12;;;;;;;13.63;7.93;;;7.90;99.90;;;;;;5049875;28;20055;-66
2022/04/24 00:19:38;;;;;;;12.00;8.00;;;7.90;99.90;;;;;;5077875;28;20047;-66
2022/04/24 00:22:04;;;;;;;10.80;7.53;;;7.90;99.90;;;;;;5081970;28;20039;-66
2022/04/24 00:24:32;;;;;;;12.13;7.80;;;7.80;99.90;;;;;;5064979;28;20101;-66
2022/04/24 00:26:58;;;;;;;9.38;7.40;;;7.70;99.90;;;;;;5083347;28;20040;-66
2022/04/24 00:29:24;;;;;;;9.52;7.45;;;7.70;99.90;;;;;;5041971;28;20452;-66
2022/04/24 00:31:50;;;;;;;11.75;8.70;;;7.70;99.90;;;;;;5049744;28;20028;-66
2022/04/24 00:34:16;;;;;;;9.45;7.82;;;7.70;99.90;;;;;;5061915;28;20152;-66
2022/04/24 00:36:41;;;;;;;12.25;7.80;;;7.80;99.90;;;;;;5062485;28;20051;-66
2022/04/24 00:39:07;;;;;;;11.02;8.35;;;7.80;99.90;;;;;;5080815;28;20043;-67
2022/04/24 00:41:33;;;;;;;11.18;8.18;;;7.80;99.90;;;;;;5083462;28;20054;-66
2022/04/24 00:43:59;;;;;;;8.60;7.53;;;7.80;99.90;;;;;;5084868;28;20424;-66
2022/04/24 00:46:41;;;;;;;12.68;7.95;;;7.80;99.90;;;;;;5083936;28;20305;-66
2022/04/24 00:49:12;;;;;;;10.20;7.72;;;7.70;99.90;;;;;;5084987;28;20032;-66
2022/04/24 00:51:42;;;;;;;10.65;7.40;;;7.60;99.90;;;;;;5084169;28;20032;-66
2022/04/24 00:54:09;;;;;;;10.30;7.95;;;7.60;99.90;;;;;;5064670;28;20036;-66
2022/04/24 00:56:39;;;;;;;10.60;7.38;;;7.50;99.90;;;;;;5083455;28;20066;-66
2022/04/24 00:59:08;;;;;;;10.20;7.28;;;7.50;99.90;;;;;;5063761;28;20511;-66
2022/04/24 01:01:34;;;;;;;10.07;8.00;;;7.40;99.90;;;;;;5049911;28;20047;-66
2022/04/24 01:04:02;;;;;;;11.43;7.47;;;7.50;99.90;;;;;;5067111;28;20106;-66
2022/04/24 01:06:31;;;;;;;9.98;8.07;;;7.40;99.90;;;;;;5064443;28;20105;-66
2022/04/24 01:09:08;;;;;;;10.40;8.02;;;7.40;99.90;;;;;;5063995;28;20233;-66
2022/04/24 01:11:34;;;;;;;9.40;7.40;;;7.30;99.90;;;;;;5064048;28;20108;-67
2022/04/24 01:14:00;;;;;;;8.55;7.15;;;7.30;99.90;;;;;;5064848;28;20056;-66
2022/04/24 01:16:25;;;;;;;10.55;7.63;;;7.20;99.90;;;;;;5048361;28;20119;-66
2022/04/24 01:18:51;;;;;;;14.40;8.20;;;7.10;99.90;;;;;;5064672;28;20036;-66
2022/04/24 01:21:17;;;;;;;9.85;7.40;;;7.10;99.90;;;;;;5047306;28;20123;-67
2022/04/24 01:23:43;;;;;;;8.93;6.80;;;7.00;99.90;;;;;;5052687;28;20040;-66
2022/04/24 01:26:09;;;;;;;12.70;8.00;;;7.00;99.90;;;;;;5085629;28;20070;-66
2022/04/24 01:28:37;;;;;;;9.63;7.38;;;6.90;99.90;;;;;;5082498;28;20860;-66
2022/04/24 01:31:03;;;;;;;9.40;7.25;;;6.90;99.90;;;;;;5064979;28;20123;-66
2022/04/24 01:33:29;;;;;;;11.45;7.90;;;6.80;99.90;;;;;;5058991;28;20473;-66
2022/04/24 01:35:55;;;;;;;10.50;8.23;;;6.80;99.90;;;;;;5063253;28;20329;-66
2022/04/24 01:38:21;;;;;;;9.43;7.38;;;6.80;99.90;;;;;;5085347;28;20266;-66
2022/04/24 01:40:46;;;;;;;10.18;7.45;;;6.90;99.90;;;;;;5063087;28;20042;-66
2022/04/24 01:43:12;;;;;;;12.18;8.13;;;6.90;99.90;;;;;;5065169;28;20413;-66
2022/04/24 01:45:37;;;;;;;12.02;7.28;;;7.00;99.90;;;;;;5065241;28;20077;-66
2022/04/24 01:48:03;;;;;;;9.50;7.40;;;7.10;99.90;;;;;;5066906;28;20130;-66
2022/04/24 01:50:29;;;;;;;17.63;7.72;;;7.10;99.90;;;;;;5083601;28;20489;-66
2022/04/24 01:52:56;;;;;;;10.30;7.13;;;7.20;99.90;;;;;;5082244;28;20050;-66
2022/04/24 01:55:21;;;;;;;10.30;7.55;;;7.20;99.90;;;;;;5081350;28;20119;-66
2022/04/24 01:57:47;;;;;;;10.52;7.15;;;7.20;99.90;;;;;;5067369;28;20465;-66
2022/04/24 02:00:13;;;;;;;11.52;7.38;;;7.20;99.90;;;;;;5064646;28;20032;-66
2022/04/24 02:02:39;;;;;;;13.90;7.72;;;7.20;99.90;;;;;;5083223;28;20044;-66
2022/04/24 02:05:05;;;;;;;10.18;7.93;;;7.20;99.90;;;;;;5047086;28;20048;-66
2022/04/24 02:07:31;;;;;;;11.95;7.72;;;7.20;99.90;;;;;;5069439;28;20044;-67
2022/04/24 02:09:57;;;;;;;10.20;7.50;;;7.20;99.90;;;;;;5087753;28;20477;-66
2022/04/24 02:12:22;;;;;;;10.05;6.97;;;7.20;99.90;;;;;;5084233;28;20040;-66
2022/04/24 02:14:48;;;;;;;10.65;7.93;;;7.10;99.90;;;;;;5087872;28;20376;-66
2022/04/24 02:17:14;;;;;;;9.38;7.25;;;7.10;99.90;;;;;;5081070;28;20031;-66
2022/04/24 02:19:39;;;;;;;11.02;7.65;;;7.10;99.90;;;;;;5070707;28;20131;-66
2022/04/24 02:22:05;;;;;;;10.68;7.32;;;7.10;99.90;;;;;;5086285;28;20044;-66
2022/04/24 02:24:31;;;;;;;9.18;7.30;;;7.10;99.90;;;;;;5086476;28;20097;-66
2022/04/24 02:27:00;;;;;;;9.68;7.30;;;7.10;99.90;;;;;;5064778;28;20036;-66
2022/04/24 02:29:27;;;;;;;12.18;7.65;;;7.00;99.90;;;;;;5090319;28;20040;-66
2022/04/24 02:31:52;;;;;;;11.05;7.90;;;7.00;99.90;;;;;;5066470;28;20115;-67
2022/04/24 02:34:18;;;;;;;10.23;7.10;;;7.00;99.90;;;;;;5068838;28;20135;-67
2022/04/24 02:36:44;;;;;;;12.93;7.18;;;6.90;99.90;;;;;;5068499;28;20416;-66
2022/04/24 02:39:10;;;;;;;12.40;8.23;;;6.90;99.90;;;;;;5050344;28;20064;-66
2022/04/24 02:41:35;;;;;;;10.70;7.45;;;6.90;99.90;;;;;;5068605;28;20127;-66
2022/04/24 02:44:01;;;;;;;9.75;6.70;;;6.90;99.90;;;;;;5067214;28;20120;-66
2022/04/24 02:46:27;;;;;;;9.40;7.25;;;6.80;99.90;;;;;;5085813;28;20051;-66
2022/04/24 02:48:52;;;;;;;8.30;6.90;;;6.80;99.90;;;;;;5086275;28;20036;-66
2022/04/24 02:51:22;;;;;;;10.40;7.70;;;6.80;99.90;;;;;;5065885;28;20070;-66
2022/04/24 02:53:48;;;;;;;14.30;7.43;;;6.90;99.90;;;;;;5083579;28;20064;-66
2022/04/24 02:56:13;;;;;;;9.13;6.90;;;6.80;99.90;;;;;;5065101;28;20143;-66
2022/04/24 02:58:39;;;;;;;11.50;7.30;;;6.80;99.90;;;;;;5068045;28;20101;-66
2022/04/24 03:01:05;;;;;;;10.73;6.63;;;6.80;99.90;;;;;;5086248;28;20393;-66
2022/04/24 03:03:31;;;;;;;11.48;7.13;;;6.80;99.90;;;;;;5085986;28;20043;-66
2022/04/24 03:05:57;;;;;;;9.82;7.22;;;6.80;99.90;;;;;;5065373;28;20473;-66
2022/04/24 03:08:23;;;;;;;10.68;7.30;;;6.80;99.90;;;;;;5066292;28;20044;-66
2022/04/24 03:10:48;;;;;;;8.88;6.72;;;6.80;99.90;;;;;;5062354;28;20032;-66
2022/04/24 03:13:14;;;;;;;8.70;7.18;;;6.80;99.90;;;;;;5083894;28;20105;-66
2022/04/24 03:15:40;;;;;;;9.25;7.03;;;6.80;99.90;;;;;;5085511;28;20401;-66
2022/04/24 03:18:06;;;;;;;8.30;6.95;;;6.80;99.90;;;;;;5044176;28;20044;-66
2022/04/24 03:20:32;;;;;;;8.60;7.10;;;6.80;99.90;;;;;;5067898;28;20119;-66
2022/04/24 03:22:58;;;;;;;10.35;7.38;;;6.70;99.90;;;;;;5048926;28;20489;-66
2022/04/24 03:25:23;;;;;;;9.43;7.10;;;6.60;99.90;;;;;;5068726;28;20525;-66
2022/04/24 03:27:49;;;;;;;11.20;7.07;;;6.60;99.90;;;;;;5084222;28;20070;-66
2022/04/24 03:30:15;;;;;;;9.45;7.10;;;6.60;99.90;;;;;;5087543;28;20489;-66
2022/04/24 03:32:41;;;;;;;8.45;6.43;;;6.50;99.90;;;;;;5085363;28;20032;-66
2022/04/24 03:35:09;;;;;;;9.40;7.53;;;6.50;99.90;;;;;;5067352;28;20070;-66
2022/04/24 03:37:39;;;;;;;10.77;6.95;;;6.50;99.90;;;;;;5066619;28;20118;-66
2022/04/24 03:40:06;;;;;;;8.77;6.82;;;6.50;99.90;;;;;;5085810;28;20048;-66
2022/04/24 03:42:32;;;;;;;9.32;7.35;;;6.50;99.90;;;;;;5049977;28;20048;-66
2022/04/24 03:44:58;;;;;;;9.38;7.13;;;6.40;99.90;;;;;;5068194;28;20072;-66
2022/04/24 03:47:24;;;;;;;9.05;7.00;;;6.40;99.90;;;;;;5085963;28;20043;-66
2022/04/24 03:49:50;;;;;;;10.50;7.05;;;6.40;99.90;;;;;;5088568;28;20043;-66
2022/04/24 03:52:16;;;;;;;8.05;7.00;;;6.30;99.90;;;;;;5064896;28;20042;-66
2022/04/24 03:54:43;;;;;;;9.10;7.22;;;6.30;99.90;;;;;;5087994;28;20119;-66
2022/04/24 03:57:11;;;;;;;14.05;7.75;;;6.30;99.90;;;;;;5084127;28;20036;-66
2022/04/24 03:59:37;;;;;;;14.70;7.45;;;6.20;99.90;;;;;;5065910;28;20413;-66
2022/04/24 04:02:03;;;;;;;9.68;7.43;;;6.20;99.90;;;;;;5084636;28;20043;-66
2022/04/24 04:04:29;;;;;;;9.93;6.80;;;6.20;99.90;;;;;;5066666;28;20044;-66
2022/04/24 04:06:55;;;;;;;11.43;7.32;;;6.20;99.90;;;;;;5086317;28;20042;-66
2022/04/24 04:09:21;;;;;;;11.07;7.15;;;6.10;99.90;;;;;;5048255;28;20131;-66
2022/04/24 04:11:46;;;;;;;9.70;7.07;;;6.10;99.90;;;;;;5085659;28;20028;-66
2022/04/24 04:14:12;;;;;;;10.35;7.70;;;6.00;99.90;;;;;;5067244;28;20419;-66
2022/04/24 04:16:38;;;;;;;10.82;7.18;;;6.00;99.90;;;;;;5086360;28;20610;-66
2022/04/24 04:19:04;;;;;;;8.68;7.43;;;6.00;99.90;;;;;;5065122;28;20641;-66
2022/04/24 04:21:30;;;;;;;11.10;7.95;;;6.00;99.90;;;;;;5085200;28;20409;-66
2022/04/24 04:23:56;;;;;;;12.20;7.63;;;6.00;99.90;;;;;;5066502;28;20082;-66
2022/04/24 04:26:21;;;;;;;14.48;7.75;;;5.90;99.90;;;;;;5064420;28;20082;-66
2022/04/24 04:28:48;;;;;;;14.50;7.93;;;5.90;99.90;;;;;;5082249;28;20054;-66
2022/04/24 04:31:14;;;;;;;11.35;7.70;;;5.80;99.90;;;;;;5064700;28;20024;-66
2022/04/24 04:33:41;;;;;;;10.45;6.75;;;5.80;99.90;;;;;;5067977;28;20409;-66
2022/04/24 04:36:08;;;;;;;13.65;7.32;;;5.80;99.90;;;;;;5068170;28;20519;-66
2022/04/24 04:38:34;;;;;;;11.88;7.50;;;5.80;99.90;;;;;;5065073;28;20508;-66
2022/04/24 04:40:59;;;;;;;12.50;7.75;;;5.80;99.90;;;;;;5046593;28;20044;-66
2022/04/24 04:43:26;;;;;;;9.07;7.35;;;5.70;99.90;;;;;;5064130;28;20082;-66
2022/04/24 04:45:52;;;;;;;9.93;7.68;;;5.70;99.90;;;;;;5064007;28;20035;-66
2022/04/24 04:48:18;;;;;;;9.32;7.20;;;5.70;99.90;;;;;;5081324;28;20084;-66
2022/04/24 04:50:44;;;;;;;10.52;7.72;;;5.70;99.90;;;;;;5083822;28;20043;-66
2022/04/24 04:53:10;;;;;;;10.93;8.18;;;5.70;99.90;;;;;;5080393;28;20039;-66
2022/04/24 04:55:36;;;;;;;12.77;7.88;;;5.70;99.90;;;;;;5084240;28;20047;-66
2022/04/24 04:58:02;;;;;;;13.05;7.97;;;5.80;99.90;;;;;;5063830;28;20035;-66
2022/04/24 05:00:30;;;;;;;12.18;7.47;;;5.70;99.90;;;;;;5066436;28;20043;-66
2022/04/24 05:02:56;;;;;;;12.18;7.78;;;5.80;99.90;;;;;;5086207;28;20115;-66
2022/04/24 05:05:22;;;;;;;13.52;8.40;;;5.80;99.90;;;;;;5050153;28;20412;-66
2022/04/24 05:07:48;;;;;;;11.13;7.80;;;5.90;99.90;;;;;;5068275;28;20040;-66
2022/04/24 05:10:13;;;;;;;11.18;8.07;;;6.00;99.90;;;;;;5083267;28;20063;-66
2022/04/24 05:12:39;;;;;;;11.65;7.90;;;6.00;99.90;;;;;;5082964;28;20436;-66
2022/04/24 05:15:07;;;;;;;10.75;7.75;;;6.10;99.90;;;;;;5064430;28;20418;-66
2022/04/24 05:17:34;;;;;;;10.75;7.45;;;6.20;99.90;;;;;;5081340;28;20123;-66
2022/04/24 05:20:01;;;;;;;10.30;6.97;;;6.30;99.90;;;;;;5074208;28;20078;-66
2022/04/24 05:22:26;;;;;;;9.65;7.60;;;6.40;99.90;;;;;;5064014;28;20036;-67
2022/04/24 05:24:53;;;;;;;12.27;7.20;;;6.50;99.90;;;;;;5066560;28;20055;-66
2022/04/24 05:27:21;;;;;;;11.63;7.78;;;6.50;99.90;;;;;;5083564;28;20040;-66
2022/04/24 05:29:48;;;;;;;11.48;7.22;;;6.60;99.90;;;;;;5083707;28;20036;-66
2022/04/24 05:32:14;;;;;;;8.93;6.72;;;6.70;99.90;;;;;;5085607;28;20386;-66
2022/04/24 05:34:40;;;;;;;12.65;7.57;;;6.80;99.90;;;;;;5047650;28;20541;-66
2022/04/24 05:37:06;;;;;;;10.85;7.70;;;6.90;99.90;;;;;;5045020;28;20060;-66
2022/04/24 05:39:32;;;;;;;10.23;7.65;;;6.90;99.90;;;;;;5081773;28;20179;-66
2022/04/24 05:41:57;;;;;;;12.50;7.65;;;7.00;99.90;;;;;;5089898;28;20118;-66
2022/04/24 05:44:23;;;;;;;12.13;8.65;;;7.10;99.90;;;;;;5052813;28;20038;-67
2022/04/24 05:46:49;;;;;;;10.10;7.30;;;7.20;99.90;;;;;;5070405;28;20096;-66
2022/04/24 05:49:15;;;;;;;9.77;7.50;;;7.30;99.90;;;;;;5086080;28;20047;-66
2022/04/24 05:51:40;;;;;;;11.65;7.32;;;7.30;99.90;;;;;;5070236;28;20055;-66
2022/04/24 05:54:06;;;;;;;10.35;6.75;;;7.50;99.90;;;;;;5067866;28;20035;-66
2022/04/24 05:56:32;;;;;;;8.43;6.75;;;7.50;99.90;;;;;;5089104;28;20051;-66
2022/04/24 05:58:58;;;;;;;10.05;7.00;;;7.60;99.90;;;;;;5088231;28;20417;-66
2022/04/24 06:01:23;;;;;;;9.25;7.05;;;7.60;99.90;;;;;;5069338;28;20036;-67
2022/04/24 06:03:49;;;;;;;11.13;7.70;;;7.70;99.90;;;;;;5037091;28;20123;-66
2022/04/24 06:06:16;;;;;;;10.80;7.43;;;7.70;99.90;;;;;;5070113;28;20039;-66
2022/04/24 06:08:43;;;;;;;11.65;7.63;;;7.80;99.90;;;;;;5069710;28;20084;-66
2022/04/24 06:11:09;;;;;;;10.43;7.32;;;7.90;99.90;;;;;;5066243;28;20040;-66
2022/04/24 06:13:35;;;;;;;12.15;7.18;;;7.90;99.90;;;;;;5055315;28;20168;-67
2022/04/24 06:16:01;;;;;;;10.43;7.35;;;8.00;99.90;;;;;;5065530;28;20032;-67
2022/04/24 06:18:28;;;;;;;10.13;6.95;;;8.10;99.90;;;;;;5066058;28;20028;-67
2022/04/24 06:20:54;;;;;;;9.43;6.38;;;8.10;99.90;;;;;;5068346;28;20107;-67
2022/04/24 06:23:20;;;;;;;8.93;6.97;;;8.30;99.90;;;;;;5068313;28;20090;-67
2022/04/24 06:25:46;;;;;;;9.38;7.22;;;8.40;99.90;;;;;;5066362;28;20043;-67
2022/04/24 06:28:12;;;;;;;10.10;7.00;;;8.50;99.90;;;;;;5068917;28;20496;-67
2022/04/24 06:30:40;;;;;;;10.48;6.80;;;8.60;99.90;;;;;;5066327;28;20047;-67
2022/04/24 06:33:10;;;;;;;12.48;6.63;;;8.60;99.90;;;;;;5081282;28;20501;-67
2022/04/24 06:35:37;;;;;;;9.10;6.70;;;8.70;99.90;;;;;;5066608;28;20135;-67
2022/04/24 06:38:03;;;;;;;10.05;6.63;;;8.70;99.90;;;;;;5043032;28;20122;-67
2022/04/24 06:40:28;;;;;;;9.38;6.60;;;8.70;99.90;;;;;;5082616;28;20113;-67
2022/04/24 06:43:07;;;;;;;10.02;6.15;;;8.90;99.90;;;;;;5081311;28;20047;-67
2022/04/24 06:45:38;;;;;;;9.43;6.78;;;9.00;99.90;;;;;;5061500;28;20325;-67
2022/04/24 06:48:09;;;;;;;10.07;6.80;;;9.00;99.90;;;;;;5059025;28;20036;-67
2022/04/24 06:50:37;;;;;;;8.32;6.50;;;9.10;99.90;;;;;;5080397;28;20570;-67
2022/04/24 06:53:08;;;;;;;9.77;6.57;;;9.10;99.90;;;;;;5078160;28;20124;-67
2022/04/24 06:55:36;;;;;;;9.30;6.07;;;9.30;99.90;;;;;;5059658;28;20497;-67
2022/04/24 06:58:05;;;;;;;10.68;6.57;;;9.30;99.90;;;;;;5074032;28;20032;-67
2022/04/24 07:00:33;;;;;;;7.90;5.97;;;9.40;99.90;;;;;;5065636;28;20036;-67
2022/04/24 07:02:59;;;;;;;8.88;5.40;;;9.60;99.90;;;;;;5080001;28;20050;-67
2022/04/24 07:05:27;;;;;;;9.90;6.05;;;9.60;99.90;;;;;;5064440;28;20028;-67
2022/04/24 07:07:53;;;;;;;6.70;5.55;;;9.70;99.90;;;;;;5057271;28;20513;-67
2022/04/24 07:10:19;;;;;;;12.93;6.80;;;9.80;99.90;;;;;;5057878;28;20048;-67
2022/04/24 07:12:46;;;;;;;11.43;6.43;;;9.80;99.90;;;;;;5058076;28;20072;-68
2022/04/24 07:15:13;;;;;;;8.65;5.97;;;9.80;99.90;;;;;;5048007;28;20043;-67
2022/04/24 07:17:40;;;;;;;9.65;6.10;;;9.90;99.90;;;;;;5067064;28;20439;-67
2022/04/24 07:20:08;;;;;;;9.38;6.22;;;10.00;99.90;;;;;;5051177;28;20519;-68
2022/04/24 07:22:49;;;;;;;9.88;6.18;;;10.20;99.90;;;;;;5078509;28;20044;-67
2022/04/24 07:25:17;;;;;;;9.02;6.03;;;10.70;99.90;;;;;;5049913;28;20043;-67
2022/04/24 07:27:44;;;;;;;9.48;5.68;;;11.10;99.90;;;;;;5073997;28;21252;-67
2022/04/24 07:30:13;;;;;;;9.82;5.70;;;11.50;99.90;;;;;;5053479;28;20040;-67
2022/04/24 07:32:54;;;;;;;7.75;5.13;;;12.10;99.90;;;;;;5070275;28;20048;-68
2022/04/24 07:35:31;;;;;;;8.93;5.32;;;12.90;99.40;;;;;;5063529;28;20053;-67
2022/04/24 07:37:57;;;;;;;9.25;4.90;;;13.60;98.00;;;;;;5075931;28;20170;-67
2022/04/24 07:40:28;;;;;;;9.38;5.68;;;14.20;97.90;;;;;;5054270;28;20059;-68
2022/04/24 07:43:00;;;;;;;7.75;5.45;;;14.50;96.10;;;;;;5055584;28;20066;-68
2022/04/24 07:45:27;;;;;;;8.10;5.25;;;14.80;95.20;;;;;;5062684;28;20044;-68
2022/04/24 07:47:54;;;;;;;9.00;5.30;;;14.60;94.50;;;;;;5057211;28;20037;-68
2022/04/24 07:50:22;;;;;;;6.88;4.88;;;14.90;94.40;;;;;;5073487;28;20048;-68
2022/04/24 07:52:48;;;;;;;14.10;5.53;;;15.00;93.30;;;;;;5066832;28;20032;-69
2022/04/24 07:55:19;;;;;;;6.47;4.53;;;15.40;93.70;;;;;;5068034;28;20486;-68
2022/04/24 07:57:49;;;;;;;6.93;5.13;;;15.60;92.60;;;;;;5071102;28;20040;-69
2022/04/24 08:00:23;;;;;;;6.25;4.80;;;15.40;92.30;;;;;;5050325;28;20148;-68
2022/04/24 08:02:57;;;;;;;8.93;4.95;;;15.50;92.10;;;;;;5070533;28;20044;-68
2022/04/24 08:05:28;;;;;;;6.60;4.57;;;16.10;91.80;;;;;;5071459;28;20043;-68
2022/04/24 08:07:56;;;;;;;7.60;4.20;;;16.20;91.60;;;;;;5051346;28;20040;-68
2022/04/24 08:10:23;;;;;;;7.97;4.78;;;16.30;91.50;;;;;;5068155;28;20040;-68
2022/04/24 08:12:49;;;;;;;6.97;4.07;;;16.30;90.60;;;;;;5052451;28;20084;-68
2022/04/24 08:15:16;;;;;;;6.28;3.80;;;16.10;90.30;;;;;;5050956;28;20036;-69
2022/04/24 08:17:42;;;;;;;4.68;3.90;;;16.30;90.70;;;;;;5052757;28;20033;-68
2022/04/24 08:20:09;;;;;;;5.30;3.47;;;16.50;89.10;;;;;;5051485;28;20124;-69
2022/04/24 08:22:43;;;;;;;6.00;3.85;;;16.80;88.20;;;;;;5074823;28;20044;-68
2022/04/24 08:25:11;;;;;;;5.03;3.33;;;16.70;85.60;;;;;;5049674;28;20056;-69
2022/04/24 08:27:38;;;;;;;4.53;3.78;;;16.80;86.70;;;;;;5075926;28;20397;-69
2022/04/24 08:30:05;;;;;;;5.28;3.60;;;16.40;84.50;;;;;;5043405;28;20086;-71
2022/04/24 08:32:32;;;;;;;4.88;3.60;;;16.50;86.50;;;;;;5055994;28;20048;-69
2022/04/24 08:34:58;;;;;;;7.00;3.95;;;16.90;87.10;;;;;;5059815;28;20413;-69
2022/04/24 08:37:25;;;;;;;6.32;3.55;;;16.80;86.90;;;;;;5077755;28;20115;-69
2022/04/24 08:39:52;;;;;;;4.82;3.33;;;17.10;85.40;;;;;;5084206;28;20041;-69
2022/04/24 08:42:21;;;;;;;4.53;2.83;;;16.80;84.70;;;;;;5062277;28;20071;-69
2022/04/24 08:44:51;;;;;;;5.72;3.03;;;16.70;84.50;;;;;;5055463;28;20067;-69
2022/04/24 08:47:18;;;;;;;3.55;3.03;;;17.00;85.30;;;;;;5070627;28;20036;-69
2022/04/24 08:49:45;;;;;;;6.35;3.33;;;17.30;85.60;;;;;;5082639;28;20086;-69
2022/04/24 08:52:11;;;;;;;5.18;3.30;;;17.50;84.60;;;;;;5067498;28;20055;-70
2022/04/24 08:54:39;;;;;;;4.28;3.10;;;17.80;83.80;;;;;;5078567;28;20036;-70
2022/04/24 08:57:05;;;;;;;4.28;3.10;;;17.90;82.30;;;;;;5072843;28;20123;-71
2022/04/24 08:59:30;;;;;;;4.93;2.67;;;18.10;82.20;;;;;;5077892;28;20131;-71
2022/04/24 09:01:58;;;;;;;4.90;2.83;;;18.30;80.00;;;;;;5052743;28;20086;-71
2022/04/24 09:04:26;;;;;;;5.72;2.92;;;18.30;77.80;;;;;;5052704;28;20528;-71
2022/04/24 09:06:59;;;;;;;6.72;2.67;;;18.40;77.70;;;;;;5041603;28;20032;-71
2022/04/24 09:09:25;;;;;;;6.13;2.97;;;18.50;77.80;;;;;;5052343;28;20512;-70
2022/04/24 09:11:51;;;;;;;4.28;3.10;;;18.40;76.80;;;;;;5070990;28;20048;-70
2022/04/24 09:14:23;;;;;;;5.38;2.78;;;18.40;76.60;;;;;;5053076;28;20044;-70
2022/04/24 09:16:49;;;;;;;4.00;2.88;;;18.70;77.40;;;;;;5073026;28;20658;-70
2022/04/24 09:19:23;;;;;;;5.50;3.30;;;18.70;76.20;;;;;;5077998;28;20083;-71
2022/04/24 09:22:10;;;;;;;3.42;2.58;;;18.60;74.50;;;;;;5086027;28;20060;-70
2022/04/24 09:24:44;;;;;;;6.38;2.97;;;18.40;75.30;;;;;;5053203;28;20512;-70
2022/04/24 09:27:22;;;;;;;6.00;3.08;;;18.40;75.20;;;;;;5072347;28;20085;-70
2022/04/24 09:29:56;;;;;;;5.75;2.90;;;18.50;75.30;;;;;;5042971;28;20485;-70
2022/04/24 09:32:25;;;;;;;6.00;3.00;;;18.20;73.40;;;;;;5065399;28;20079;-71
2022/04/24 09:34:51;;;;;;;3.60;2.90;;;18.10;75.30;;;;;;5066757;28;20049;-70
2022/04/24 09:37:18;;;;;;;4.60;3.05;;;18.20;74.50;;;;;;5068354;28;20036;-70
2022/04/24 09:39:44;;;;;;;3.60;2.60;;;18.00;74.70;;;;;;5064159;28;20410;-71
2022/04/24 09:42:11;;;;;;;7.57;2.80;;;18.20;75.50;;;;;;5076089;28;20036;-70
2022/04/24 09:44:41;;;;;;;5.05;2.92;;;18.20;73.70;;;;;;5063844;28;20036;-71
2022/04/24 09:47:08;;;;;;;35.42;5.53;;;18.10;73.20;;;;;;5069653;28;20505;-71
2022/04/24 09:49:41;;;;;;;4.32;2.55;;;18.10;73.40;;;;;;5066320;28;20044;-70
2022/04/24 09:52:14;;;;;;;3.95;2.83;;;18.10;72.50;;;;;;5066056;28;20031;-70
2022/04/24 09:54:45;;;;;;;2.90;2.30;;;18.30;75.40;;;;;;5067500;28;20048;-71
2022/04/24 09:57:13;;;;;;;5.72;2.50;;;18.50;75.10;;;;;;5068423;28;20043;-70
2022/04/24 09:59:44;;;;;;;6.20;2.70;;;18.60;74.50;;;;;;5069038;28;20044;-70
2022/04/24 10:02:11;;;;;;;3.08;2.55;;;18.60;74.00;;;;;;5070402;28;20045;-70
2022/04/24 10:04:39;;;;;;;8.35;3.03;;;18.60;74.90;;;;;;5050727;28;20071;-70
2022/04/24 10:07:10;;;;;;;5.82;2.92;;;18.70;75.10;;;;;;5050279;28;20056;-70
2022/04/24 10:09:38;;;;;;;4.75;3.28;;;18.70;73.50;;;;;;5069262;28;20805;-70
2022/04/24 10:12:07;;;;;;;4.00;2.90;;;18.60;73.60;;;;;;5052786;28;20067;-70
2022/04/24 10:15:05;;;;;;;6.03;3.00;;;18.50;73.40;;;;;;5078251;28;20563;-71
2022/04/24 10:18:13;;;;;;;6.07;3.30;;;18.50;74.90;;;;;;5064135;28;20132;-70
2022/04/24 10:21:10;;;;;;;14.43;3.90;;;18.60;72.90;;;;;;5052320;28;20393;-70
2022/04/24 10:23:37;;;;;;;5.07;3.33;;;18.70;74.20;;;;;;5068040;28;20060;-69
2022/04/24 10:26:15;;;;;;;4.07;3.08;;;18.10;72.30;;;;;;5060960;28;20052;-67
2022/04/24 10:28:46;;;;;;;4.95;2.80;;;18.00;73.50;;;;;;5064491;28;20580;-68
2022/04/24 10:31:13;;;;;;;4.05;2.80;;;17.90;72.90;;;;;;5046964;28;20036;-67
2022/04/24 10:33:40;;;;;;;5.97;3.10;;;18.00;74.20;;;;;;5062782;28;20032;-71
2022/04/24 10:36:08;;;;;;;4.97;2.90;;;17.90;74.00;;;;;;5072718;28;20183;-69
2022/04/24 10:38:50;;;;;;;4.50;3.00;;;18.10;74.50;;;;;;5057338;28;20051;-70
2022/04/24 10:41:23;;;;;;;5.77;3.43;;;18.20;72.90;;;;;;5057121;28;20040;-69
2022/04/24 10:43:52;;;;;;;3.63;2.75;;;18.20;71.80;;;;;;5058660;28;20402;-70
2022/04/24 10:46:33;;;;;;;3.03;2.63;;;18.30;71.40;;;;;;5060828;28;20039;-70
2022/04/24 10:49:18;;;;;;;4.70;2.97;;;18.00;69.60;;;;;;5057479;28;20036;-70
2022/04/24 10:52:01;;;;;;;5.07;2.70;;;18.50;71.60;;;;;;5066309;28;20120;-70
2022/04/24 10:54:35;;;;;;;7.90;2.88;;;18.80;71.00;;;;;;5061788;28;20087;-71
2022/04/24 10:57:14;;;;;;;4.38;3.13;;;19.00;70.10;;;;;;5061417;28;20049;-70
2022/04/24 10:59:48;;;;;;;6.63;3.25;;;19.20;70.60;;;;;;5065307;28;20048;-69
2022/04/24 11:02:22;;;;;;;6.60;3.50;;;19.50;70.00;;;;;;5030241;28;20036;-70
2022/04/24 11:05:01;;;;;;;4.13;2.92;;;19.50;68.70;;;;;;5062393;28;20045;-70
2022/04/24 11:07:27;;;;;;;6.70;2.85;;;19.40;67.70;;;;;;5044087;28;20036;-69
2022/04/24 11:10:04;;;;;;;4.45;3.10;;;19.50;70.10;;;;;;5047887;28;20036;-71
2022/04/24 11:12:31;;;;;;;4.78;2.75;;;19.20;68.00;;;;;;5062660;28;20044;-71
2022/04/24 11:15:07;;;;;;;4.18;3.33;;;18.90;69.20;;;;;;5056907;28;20050;-70
2022/04/24 11:17:34;;;;;;;4.88;3.17;;;19.00;68.60;;;;;;5062382;28;20037;-71
2022/04/24 11:20:03;;;;;;;6.55;2.92;;;18.80;69.20;;;;;;5060179;28;20041;-70
2022/04/24 11:22:31;;;;;;;5.00;2.63;;;18.70;69.30;;;;;;5064347;28;20066;-72
2022/04/24 11:24:59;;;;;;;5.63;3.22;;;18.70;68.50;;;;;;5059020;28;20119;-70
2022/04/24 11:27:26;;;;;;;6.05;3.13;;;18.50;67.90;;;;;;5065006;28;20581;-70
2022/04/24 11:29:52;;;;;;;5.57;2.67;;;18.40;68.70;;;;;;5057734;28;20051;-71
2022/04/24 11:32:19;;;;;;;3.75;2.70;;;18.10;67.90;;;;;;5059729;28;20037;-70
2022/04/24 11:34:45;;;;;;;5.38;3.00;;;17.90;68.70;;;;;;5062335;28;20084;-71
2022/04/24 11:37:11;;;;;;;6.30;2.78;;;17.50;67.80;;;;;;5068881;28;20036;-70
2022/04/24 11:39:40;;;;;;;6.90;3.60;;;17.50;69.30;;;;;;5050768;28;20062;-70
2022/04/24 11:42:07;;;;;;;8.07;3.30;;;17.10;70.40;;;;;;5051624;28;20139;-71
2022/04/24 11:50:14;;;;;;;4.57;2.50;;;17.40;69.70;;;;;;5068533;28;20040;-70
2022/04/24 11:52:50;;;;;;;6.65;2.45;;;17.20;68.50;;;;;;5035670;28;20122;-70
2022/04/24 11:55:23;;;;;;;4.28;2.30;;;17.10;67.30;;;;;;5084240;28;20052;-71
2022/04/24 11:58:08;;;;;;;6.85;3.53;;;17.50;72.50;;;;;;5067973;28;20032;-70
2022/04/24 12:00:38;;;;;;;6.85;2.92;;;17.90;71.90;;;;;;5065478;28;20055;-70
2022/04/24 12:03:07;;;;;;;6.68;3.10;;;17.70;70.60;;;;;;5061757;28;20122;-70
2022/04/24 12:05:34;;;;;;;5.05;2.83;;;17.80;71.00;;;;;;5048655;28;20101;-71
2022/04/24 12:08:01;;;;;;;3.75;2.72;;;17.50;69.40;;;;;;5061130;28;20486;-72
2022/04/24 12:10:27;;;;;;;3.88;2.88;;;17.20;69.40;;;;;;5051149;28;20405;-71
2022/04/24 12:12:54;;;;;;;5.63;2.85;;;17.40;70.30;;;;;;5062701;28;20040;-70
2022/04/24 12:15:24;;;;;;;6.20;2.63;;;17.80;70.30;;;;;;5081280;28;20523;-69
2022/04/24 12:17:55;;;;;;;9.43;2.88;;;18.20;70.60;;;;;;5048890;28;20043;-70
2022/04/24 12:20:34;;;;;;;5.43;2.73;;;18.50;69.20;;;;;;5061132;28;20047;-70
2022/04/24 12:23:15;;;;;;;4.57;3.17;;;18.80;69.90;;;;;;5078515;28;20360;-70
2022/04/24 12:25:58;;;;;;;8.90;3.30;;;18.80;69.00;;;;;;5056499;28;20102;-70
2022/04/24 12:28:35;;;;;;;7.00;3.10;;;18.30;67.50;;;;;;5072198;28;20068;-68
2022/04/24 12:31:02;;;;;;;6.20;2.92;;;17.70;68.80;;;;;;5079681;28;20044;-69
2022/04/24 12:33:32;;;;;;;4.05;2.83;;;17.50;70.30;;;;;;5057440;28;20037;-69
2022/04/24 12:36:09;;;;;;;9.73;3.10;;;17.70;72.30;;;;;;5072399;28;20049;-69
2022/04/24 12:38:35;;;;;;;7.03;3.20;;;17.60;70.20;;;;;;5072027;28;20051;-69
2022/04/24 12:41:01;;;;;;;6.05;2.88;;;17.50;70.00;;;;;;5046143;28;20051;-70
2022/04/24 12:43:30;;;;;;;3.45;2.90;;;17.50;70.00;;;;;;5078084;28;20106;-69
2022/04/24 12:45:57;;;;;;;3.88;2.88;;;17.70;69.70;;;;;;5079910;28;20126;-69
2022/04/24 12:48:24;;;;;;;4.25;2.95;;;17.70;68.80;;;;;;5041192;28;20180;-69
2022/04/24 12:50:51;;;;;;;5.88;2.72;;;18.00;69.20;;;;;;5076801;28;20036;-69
2022/04/24 12:53:19;;;;;;;3.00;2.60;;;18.30;69.80;;;;;;5057009;28;20071;-70
2022/04/24 12:55:49;;;;;;;5.32;2.72;;;18.60;69.80;;;;;;5057306;28;20126;-69
2022/04/24 12:58:15;;;;;;;5.85;3.10;;;18.80;69.00;;;;;;5058161;28;20040;-69